Time;durP1;ratioP1;P1;durP2;ratioP2;P2;SDS_P1;SDS_P2;PMS_P1;PMS_P2;Temp;Humidity;BMP_temperature;BMP_pressure;BME280_temperature;BME280_humidity;BME280_pressure;Samples;Min_cycle;Max_cycle;Signal;HPM_P1;HPM_P2
2022/12/17 13:06:49;;;;;;;33.53;16.67;;;;;;;;;;5022535;28;20049;-69
2022/12/17 13:09:14;;;;;;;30.27;15.60;;;;;;;;;;5004120;28;20532;-70
2022/12/17 13:12:03;;;;;;;28.48;15.63;;;;;;;;;;4999807;28;20510;-69
2022/12/17 13:14:43;;;;;;;36.05;18.23;;;;;;;;;;4994933;28;20133;-69
2022/12/17 13:17:18;;;;;;;27.38;16.67;;;;;;;;;;4999221;28;20458;-69
2022/12/17 13:19:46;;;;;;;35.45;19.92;;;;;;;;;;4998080;28;20153;-69
2022/12/17 13:22:14;;;;;;;40.30;20.70;;;;;;;;;;4998809;28;20061;-69
2022/12/17 13:24:47;;;;;;;42.70;21.42;;;;;;;;;;4996445;28;20497;-68
2022/12/17 13:27:37;;;;;;;35.28;17.77;;;;;;;;;;5000084;28;20046;-68
2022/12/17 13:30:21;;;;;;;30.60;17.65;;;;;;;;;;4998764;28;20052;-70
2022/12/17 13:32:46;;;;;;;35.88;17.67;;;;;;;;;;5016633;28;20045;-70
2022/12/17 13:35:14;;;;;;;31.80;16.73;;;;;;;;;;5002791;28;20064;-67
2022/12/17 13:37:55;;;;;;;31.23;17.95;;;;;;;;;;5003010;28;20145;-69
2022/12/17 13:40:41;;;;;;;33.35;16.90;;;;;;;;;;4999256;28;20060;-69
2022/12/17 13:43:17;;;;;;;31.55;16.80;;;;;;;;;;4999308;28;20042;-68
2022/12/17 13:45:43;;;;;;;32.08;17.25;;;;;;;;;;5007826;28;20052;-68
2022/12/17 13:48:20;;;;;;;32.85;17.80;;;;;;;;;;5000707;28;20050;-69
2022/12/17 13:51:03;;;;;;;38.70;19.40;;;;;;;;;;5012888;28;20054;-70
2022/12/17 13:53:32;;;;;;;35.38;19.13;;;;;;;;;;4999942;28;20042;-68
2022/12/17 13:55:58;;;;;;;36.97;19.88;;;;;;;;;;4999727;28;21154;-67
2022/12/17 13:58:32;;;;;;;32.38;18.83;;;;;;;;;;4989733;28;20137;-69
2022/12/17 14:01:08;;;;;;;32.70;18.27;;;;;;;;;;4996940;28;20046;-70
2022/12/17 14:03:35;;;;;;;39.17;21.73;;;;;;;;;;4995294;28;20046;-71
2022/12/17 14:06:02;;;;;;;37.25;20.63;;;;;;;;;;4999290;28;20052;-68
2022/12/17 14:08:31;;;;;;;40.67;22.60;;;;;;;;;;4998335;28;20880;-68
2022/12/17 14:12:20;;;;;;;34.83;17.67;;;;;;;;;;4998898;28;20046;-69
2022/12/17 14:13:45;;;;;;;33.05;18.42;;;;;;;;;;4998014;28;20136;-69
2022/12/17 14:16:15;;;;;;;41.38;19.60;;;;;;;;;;4999602;28;20069;-69
2022/12/17 14:18:46;;;;;;;45.42;22.77;;;;;;;;;;4997909;28;20060;-68
2022/12/17 14:21:12;;;;;;;36.35;17.35;;;;;;;;;;5000731;28;20061;-68
2022/12/17 14:23:39;;;;;;;47.80;25.45;;;;;;;;;;4995749;28;21063;-68
2022/12/17 14:26:07;;;;;;;42.40;22.77;;;;;;;;;;4998742;28;20042;-68
2022/12/17 14:28:48;;;;;;;41.85;21.40;;;;;;;;;;4998923;28;20050;-68
2022/12/17 14:31:13;;;;;;;41.60;21.17;;;;;;;;;;5001608;28;20406;-67
2022/12/17 14:33:41;;;;;;;33.75;18.42;;;;;;;;;;4995268;28;20564;-70
2022/12/17 14:36:18;;;;;;;37.88;20.15;;;;;;;;;;4997946;28;20058;-69
2022/12/17 14:39:01;;;;;;;42.67;20.80;;;;;;;;;;4998767;28;20129;-68
2022/12/17 14:44:20;;;;;;;38.22;19.15;;;;;;;;;;5028549;28;20596;-68
2022/12/17 14:46:46;;;;;;;35.22;18.83;;;;;;;;;;4997895;28;20050;-68
2022/12/17 14:49:17;;;;;;;39.88;18.65;;;;;;;;;;4998010;28;20073;-71
2022/12/17 14:51:43;;;;;;;38.83;20.23;;;;;;;;;;4998230;28;20077;-69
2022/12/17 14:54:30;;;;;;;39.28;21.30;;;;;;;;;;4997606;28;20396;-69
2022/12/17 14:56:59;;;;;;;36.97;20.10;;;;;;;;;;4996687;28;20041;-68
2022/12/17 14:59:36;;;;;;;41.22;20.55;;;;;;;;;;4996143;28;20046;-69
2022/12/17 15:02:09;;;;;;;33.85;19.23;;;;;;;;;;4997365;28;20153;-70
2022/12/17 15:04:37;;;;;;;40.63;21.00;;;;;;;;;;4996478;28;20050;-68
2022/12/17 15:07:04;;;;;;;36.67;19.38;;;;;;;;;;4996800;28;20048;-70
2022/12/17 15:09:37;;;;;;;47.13;20.45;;;;;;;;;;4997458;28;20145;-69
2022/12/17 15:12:03;;;;;;;42.08;20.55;;;;;;;;;;4997000;28;20100;-70
2022/12/17 15:14:29;;;;;;;38.13;19.70;;;;;;;;;;4996479;28;20045;-67
2022/12/17 15:16:55;;;;;;;41.25;20.67;;;;;;;;;;4997933;28;20053;-68
2022/12/17 15:19:21;;;;;;;39.22;20.55;;;;;;;;;;4994274;28;20049;-68
2022/12/17 15:21:47;;;;;;;41.53;21.80;;;;;;;;;;4997858;28;20411;-68
2022/12/17 15:24:17;;;;;;;47.47;22.48;;;;;;;;;;4996700;28;21062;-68
2022/12/17 15:26:42;;;;;;;37.35;21.23;;;;;;;;;;4997158;28;20049;-68
2022/12/17 15:29:08;;;;;;;47.30;23.30;;;;;;;;;;4996516;28;20116;-68
2022/12/17 15:31:33;;;;;;;40.55;20.33;;;;;;;;;;4996671;28;20053;-68
2022/12/17 15:33:58;;;;;;;39.00;21.60;;;;;;;;;;4992736;28;20835;-69
2022/12/17 15:36:24;;;;;;;36.47;19.65;;;;;;;;;;4998053;28;20057;-69
2022/12/17 15:38:49;;;;;;;38.60;20.38;;;;;;;;;;4997714;28;20104;-70
2022/12/17 15:43:59;;;;;;;46.53;22.52;;;;;;;;;;4995930;28;20077;-69
2022/12/17 15:46:24;;;;;;;44.60;23.65;;;;;;;;;;4997668;28;20542;-69
2022/12/17 15:48:49;;;;;;;42.88;22.05;;;;;;;;;;4996609;28;20149;-68
2022/12/17 15:51:15;;;;;;;42.08;23.10;;;;;;;;;;4996335;28;20060;-70
2022/12/17 15:53:40;;;;;;;43.55;22.17;;;;;;;;;;4995520;28;20867;-68
2022/12/17 15:56:06;;;;;;;45.65;23.27;;;;;;;;;;4995788;28;20054;-70
2022/12/17 15:58:31;;;;;;;49.85;27.95;;;;;;;;;;4996489;28;20057;-68
2022/12/17 16:00:57;;;;;;;59.47;30.17;;;;;;;;;;4997405;28;20124;-68
2022/12/17 16:03:23;;;;;;;43.22;20.88;;;;;;;;;;4994742;28;20402;-70
2022/12/17 16:05:48;;;;;;;59.20;28.17;;;;;;;;;;4996430;28;20053;-70
2022/12/17 16:08:15;;;;;;;49.35;25.88;;;;;;;;;;4997934;28;20214;-69
2022/12/17 16:10:40;;;;;;;47.35;23.77;;;;;;;;;;4997549;28;20056;-69
2022/12/17 16:13:06;;;;;;;50.05;25.85;;;;;;;;;;4996973;28;20049;-69
2022/12/17 16:15:31;;;;;;;60.22;27.50;;;;;;;;;;4998997;28;20049;-68
2022/12/17 16:17:56;;;;;;;60.05;27.73;;;;;;;;;;4997939;28;20060;-68
2022/12/17 16:20:22;;;;;;;59.10;28.70;;;;;;;;;;4997872;28;20137;-71
2022/12/17 16:22:48;;;;;;;65.05;30.05;;;;;;;;;;5000764;28;20068;-68
2022/12/17 16:25:14;;;;;;;63.45;31.10;;;;;;;;;;5015348;28;20053;-68
2022/12/17 16:27:41;;;;;;;57.92;28.73;;;;;;;;;;5000531;28;20103;-68
2022/12/17 16:30:07;;;;;;;63.85;29.45;;;;;;;;;;5016397;28;20623;-68
2022/12/17 16:32:32;;;;;;;64.80;33.22;;;;;;;;;;4998538;28;20050;-70
2022/12/17 16:34:58;;;;;;;59.85;29.35;;;;;;;;;;4998711;28;20046;-71
2022/12/17 16:37:23;;;;;;;63.13;28.02;;;;;;;;;;5015656;28;20057;-71
2022/12/17 16:39:50;;;;;;;64.50;29.05;;;;;;;;;;4995963;28;20141;-67
2022/12/17 16:42:16;;;;;;;71.20;34.22;;;;;;;;;;4998156;28;20046;-70
2022/12/17 16:44:41;;;;;;;63.67;27.27;;;;;;;;;;4997254;28;20703;-70
2022/12/17 16:47:07;;;;;;;71.32;30.38;;;;;;;;;;4996607;28;20171;-69
2022/12/17 16:49:32;;;;;;;57.13;28.55;;;;;;;;;;4995422;28;20129;-70
2022/12/17 16:51:58;;;;;;;104.22;46.90;;;;;;;;;;5000959;28;20045;-68
2022/12/17 16:54:26;;;;;;;80.55;36.45;;;;;;;;;;4998476;28;20936;-69
2022/12/17 16:56:52;;;;;;;66.78;31.38;;;;;;;;;;4996382;28;20048;-68
2022/12/17 16:59:18;;;;;;;76.57;34.67;;;;;;;;;;4996597;28;20414;-67
2022/12/17 17:01:46;;;;;;;72.30;31.75;;;;;;;;;;4999362;28;20507;-68
2022/12/17 17:04:13;;;;;;;79.50;35.70;;;;;;;;;;4998820;28;20052;-69
2022/12/17 17:06:47;;;;;;;74.38;33.83;;;;;;;;;;5001019;28;20085;-67
2022/12/17 17:09:13;;;;;;;70.65;33.65;;;;;;;;;;4998517;28;20128;-67
2022/12/17 17:11:39;;;;;;;75.75;33.38;;;;;;;;;;5009796;28;20061;-69
2022/12/17 17:14:05;;;;;;;62.28;28.63;;;;;;;;;;5016464;28;20050;-68
2022/12/17 17:16:32;;;;;;;70.22;29.60;;;;;;;;;;5004909;28;20064;-67
2022/12/17 17:18:58;;;;;;;75.72;33.58;;;;;;;;;;4999467;28;20487;-68
2022/12/17 17:21:31;;;;;;;63.17;26.92;;;;;;;;;;5001452;28;20049;-70
2022/12/17 17:24:19;;;;;;;60.35;28.98;;;;;;;;;;4999621;28;20494;-68
2022/12/17 17:26:45;;;;;;;48.75;23.60;;;;;;;;;;5000520;28;20081;-69
2022/12/17 17:29:11;;;;;;;67.95;31.63;;;;;;;;;;5014892;28;20050;-70
2022/12/17 17:31:37;;;;;;;92.68;38.17;;;;;;;;;;4998421;28;20045;-70
2022/12/17 17:34:09;;;;;;;49.33;26.35;;;;;;;;;;5000626;28;20731;-69
2022/12/17 17:36:34;;;;;;;48.58;22.30;;;;;;;;;;4994668;28;20085;-71
2022/12/17 17:39:01;;;;;;;53.17;24.90;;;;;;;;;;4999309;28;20149;-69
2022/12/17 17:41:29;;;;;;;58.78;26.83;;;;;;;;;;4997527;28;20076;-69
2022/12/17 17:44:00;;;;;;;60.08;27.35;;;;;;;;;;4999804;28;20046;-69
2022/12/17 17:46:27;;;;;;;47.20;22.50;;;;;;;;;;5013610;28;20125;-70
2022/12/17 17:48:56;;;;;;;69.40;28.77;;;;;;;;;;4999249;28;20080;-69
2022/12/17 17:51:27;;;;;;;59.78;28.77;;;;;;;;;;4996849;28;20490;-71
2022/12/17 17:53:53;;;;;;;85.47;35.20;;;;;;;;;;4995664;28;20594;-69
2022/12/17 17:56:22;;;;;;;75.05;30.00;;;;;;;;;;4997878;28;20181;-69
2022/12/17 17:58:54;;;;;;;83.18;34.45;;;;;;;;;;5000194;28;20466;-69
2022/12/17 18:01:23;;;;;;;76.10;32.78;;;;;;;;;;5000039;28;20504;-69
2022/12/17 18:03:49;;;;;;;62.58;30.00;;;;;;;;;;4996895;28;20099;-69
2022/12/17 18:06:15;;;;;;;79.22;34.67;;;;;;;;;;5000573;28;20133;-69
2022/12/17 18:08:41;;;;;;;73.32;31.90;;;;;;;;;;4999453;28;20123;-69
2022/12/17 18:11:12;;;;;;;76.65;34.45;;;;;;;;;;5000557;28;20050;-71
2022/12/17 18:13:54;;;;;;;60.60;28.42;;;;;;;;;;4995677;28;20416;-71
2022/12/17 18:16:38;;;;;;;59.42;28.20;;;;;;;;;;4999032;28;20149;-69
2022/12/17 18:19:08;;;;;;;65.20;31.27;;;;;;;;;;5014247;28;20048;-69
2022/12/17 18:21:34;;;;;;;73.15;32.75;;;;;;;;;;5014830;28;20057;-68
2022/12/17 18:24:03;;;;;;;71.75;33.70;;;;;;;;;;4998066;28;20054;-68
2022/12/17 18:26:31;;;;;;;68.35;31.20;;;;;;;;;;5010658;28;20049;-68
2022/12/17 18:29:01;;;;;;;64.47;31.70;;;;;;;;;;4996539;28;20052;-68
2022/12/17 18:31:28;;;;;;;67.43;32.72;;;;;;;;;;4998004;28;20046;-68
2022/12/17 18:33:59;;;;;;;57.72;26.63;;;;;;;;;;4996266;28;20151;-69
2022/12/17 18:36:31;;;;;;;76.45;33.63;;;;;;;;;;4997296;28;20107;-69
2022/12/17 18:39:07;;;;;;;66.80;30.52;;;;;;;;;;4998905;28;20057;-68
2022/12/17 18:44:18;;;;;;;66.03;27.00;;;;;;;;;;5026287;28;20053;-69
2022/12/17 18:46:43;;;;;;;70.03;29.23;;;;;;;;;;4998710;28;20049;-70
2022/12/17 18:49:11;;;;;;;61.28;27.38;;;;;;;;;;4996255;28;20121;-70
2022/12/17 18:51:38;;;;;;;73.38;30.15;;;;;;;;;;4989891;28;20042;-71
2022/12/17 18:54:08;;;;;;;57.53;26.73;;;;;;;;;;4997733;28;20054;-69
2022/12/17 18:56:35;;;;;;;58.53;25.45;;;;;;;;;;4998065;28;20549;-69
2022/12/17 18:59:00;;;;;;;47.92;19.27;;;;;;;;;;5011581;28;20061;-69
2022/12/17 19:01:28;;;;;;;68.63;29.10;;;;;;;;;;4996496;28;20041;-69
2022/12/17 19:03:54;;;;;;;64.50;26.27;;;;;;;;;;4995269;28;20084;-70
2022/12/17 19:06:21;;;;;;;73.93;32.42;;;;;;;;;;4998008;28;20403;-69
2022/12/17 19:08:48;;;;;;;109.28;43.03;;;;;;;;;;4996971;28;20137;-69
2022/12/17 19:11:16;;;;;;;67.75;28.50;;;;;;;;;;4999237;28;20590;-69
2022/12/17 19:13:42;;;;;;;103.97;42.83;;;;;;;;;;4997426;28;20410;-68
2022/12/17 19:16:09;;;;;;;122.07;46.10;;;;;;;;;;4998637;28;20050;-70
2022/12/17 19:18:35;;;;;;;77.72;28.92;;;;;;;;;;5013659;28;20040;-69
2022/12/17 19:21:00;;;;;;;80.53;29.55;;;;;;;;;;4997499;28;20083;-69
2022/12/17 19:23:25;;;;;;;63.90;25.73;;;;;;;;;;4998869;28;20045;-70
2022/12/17 19:25:51;;;;;;;47.38;20.65;;;;;;;;;;4997987;28;20069;-68
2022/12/17 19:28:17;;;;;;;88.18;35.67;;;;;;;;;;4999553;28;20042;-70
2022/12/17 19:30:43;;;;;;;76.05;31.08;;;;;;;;;;5011962;28;21115;-68
2022/12/17 19:33:08;;;;;;;69.15;27.95;;;;;;;;;;4998205;28;20058;-70
2022/12/17 19:35:35;;;;;;;66.20;30.02;;;;;;;;;;4998738;28;20049;-68
2022/12/17 19:38:00;;;;;;;55.92;25.02;;;;;;;;;;5013078;28;20053;-68
2022/12/17 19:40:26;;;;;;;65.22;28.90;;;;;;;;;;5013647;28;20038;-69
2022/12/17 19:42:54;;;;;;;64.15;29.33;;;;;;;;;;4998005;28;20156;-67
2022/12/17 19:45:20;;;;;;;66.22;28.35;;;;;;;;;;4998031;28;20106;-69
2022/12/17 19:47:46;;;;;;;64.00;29.20;;;;;;;;;;4997722;28;20050;-71
2022/12/17 19:50:12;;;;;;;53.30;26.10;;;;;;;;;;4998316;28;20048;-69
2022/12/17 19:52:37;;;;;;;58.75;25.80;;;;;;;;;;4997836;28;20046;-67
2022/12/17 19:55:03;;;;;;;64.35;26.88;;;;;;;;;;4998022;28;20050;-68
2022/12/17 19:57:29;;;;;;;65.78;29.98;;;;;;;;;;4998647;28;20042;-69
2022/12/17 19:59:54;;;;;;;63.78;27.63;;;;;;;;;;4998256;28;20057;-68
2022/12/17 20:02:19;;;;;;;69.57;29.85;;;;;;;;;;4998984;28;20450;-68
2022/12/17 20:04:45;;;;;;;86.85;35.20;;;;;;;;;;4995722;28;20258;-70
2022/12/17 20:07:10;;;;;;;70.22;30.42;;;;;;;;;;4998684;28;20129;-70
2022/12/17 20:09:36;;;;;;;85.38;29.80;;;;;;;;;;4996608;28;20046;-68
2022/12/17 20:12:01;;;;;;;113.00;37.88;;;;;;;;;;4993276;28;20050;-69
2022/12/17 20:14:27;;;;;;;100.50;36.88;;;;;;;;;;4995754;28;20060;-67
2022/12/17 20:16:58;;;;;;;113.53;40.97;;;;;;;;;;4996088;28;20157;-70
2022/12/17 20:19:33;;;;;;;79.32;30.42;;;;;;;;;;4998080;28;20037;-69
2022/12/17 20:22:01;;;;;;;96.13;33.22;;;;;;;;;;4994208;28;20053;-68
2022/12/17 20:24:27;;;;;;;86.28;33.25;;;;;;;;;;4995919;28;20030;-71
2022/12/17 20:26:53;;;;;;;113.95;38.33;;;;;;;;;;4996392;28;20756;-71
2022/12/17 20:29:20;;;;;;;106.82;38.75;;;;;;;;;;4999010;28;20066;-68
2022/12/17 20:31:46;;;;;;;130.38;40.65;;;;;;;;;;4997192;28;20055;-67
2022/12/17 20:34:13;;;;;;;104.32;30.27;;;;;;;;;;4998351;28;20046;-68
2022/12/17 20:36:39;;;;;;;89.20;33.35;;;;;;;;;;5011802;28;20061;-69
2022/12/17 20:39:05;;;;;;;76.13;28.67;;;;;;;;;;4998265;28;20477;-68
2022/12/17 20:41:31;;;;;;;104.55;33.25;;;;;;;;;;4998926;28;20047;-70
2022/12/17 20:44:01;;;;;;;157.07;40.63;;;;;;;;;;4997671;28;20115;-67
2022/12/17 20:46:26;;;;;;;151.48;37.28;;;;;;;;;;5012971;28;20107;-69
2022/12/17 20:48:52;;;;;;;143.40;42.30;;;;;;;;;;4997211;28;20054;-69
2022/12/17 20:51:20;;;;;;;117.13;31.67;;;;;;;;;;5013027;28;20050;-68
2022/12/17 20:53:49;;;;;;;95.45;24.67;;;;;;;;;;4996714;28;20529;-69
2022/12/17 20:56:18;;;;;;;118.00;31.50;;;;;;;;;;4998702;28;20185;-70
2022/12/17 20:58:44;;;;;;;138.13;31.85;;;;;;;;;;4996537;28;20137;-70
2022/12/17 21:01:15;;;;;;;134.43;32.45;;;;;;;;;;5000827;28;20042;-70
2022/12/17 21:03:41;;;;;;;170.63;41.33;;;;;;;;;;4998163;28;20042;-69
2022/12/17 21:06:13;;;;;;;157.15;40.38;;;;;;;;;;5001779;28;20054;-70
2022/12/17 21:08:39;;;;;;;;;;;;;;;;;;5000689;28;20147;-70
2022/12/17 21:11:05;;;;;;;103.90;30.25;;;;;;;;;;5000527;28;19965;-69
2022/12/17 21:13:31;;;;;;;97.70;27.40;;;;;;;;;;4999474;28;20132;-69
2022/12/17 21:16:03;;;;;;;129.25;31.73;;;;;;;;;;4997299;28;20123;-71
2022/12/17 21:18:30;;;;;;;101.50;25.75;;;;;;;;;;4997036;28;20211;-71
2022/12/17 21:20:59;;;;;;;113.20;35.03;;;;;;;;;;4997635;28;20141;-69
2022/12/17 21:23:26;;;;;;;113.57;32.20;;;;;;;;;;4998356;28;20073;-72
2022/12/17 21:26:01;;;;;;;93.28;26.15;;;;;;;;;;4999358;28;20479;-70
2022/12/17 21:28:26;;;;;;;114.20;31.73;;;;;;;;;;4998939;28;20054;-70
2022/12/17 21:30:52;;;;;;;117.15;33.92;;;;;;;;;;4999210;28;20100;-70
2022/12/17 21:33:17;;;;;;;107.35;32.95;;;;;;;;;;4999426;28;20244;-70
2022/12/17 21:35:43;;;;;;;72.97;22.67;;;;;;;;;;4998654;28;20042;-70
2022/12/17 21:38:09;;;;;;;76.63;26.52;;;;;;;;;;5009770;28;20073;-70
2022/12/17 21:40:35;;;;;;;73.78;19.60;;;;;;;;;;5015500;28;20046;-70
2022/12/17 21:43:00;;;;;;;78.40;27.33;;;;;;;;;;5023037;28;20046;-69
2022/12/17 21:45:26;;;;;;;55.22;20.08;;;;;;;;;;4999512;28;20471;-69
2022/12/17 21:47:52;;;;;;;93.90;26.45;;;;;;;;;;5005630;28;20107;-68
2022/12/17 21:50:18;;;;;;;109.50;25.92;;;;;;;;;;4997485;28;20049;-71
2022/12/17 21:52:43;;;;;;;111.55;28.23;;;;;;;;;;4995664;28;20048;-70
2022/12/17 21:55:09;;;;;;;97.55;22.52;;;;;;;;;;4999122;28;20107;-68
2022/12/17 21:57:34;;;;;;;142.50;25.88;;;;;;;;;;4999625;28;20045;-70
2022/12/17 21:59:59;;;;;;;177.98;35.42;;;;;;;;;;4998835;28;20096;-70
2022/12/17 22:02:25;;;;;;;70.30;20.42;;;;;;;;;;4997150;28;20042;-70
2022/12/17 22:04:50;;;;;;;101.20;25.30;;;;;;;;;;4997261;28;20117;-70
2022/12/17 22:07:16;;;;;;;115.85;21.98;;;;;;;;;;4999033;28;20042;-69
2022/12/17 22:09:41;;;;;;;153.85;31.15;;;;;;;;;;5013545;28;20046;-69
2022/12/17 22:14:50;;;;;;;118.50;26.50;;;;;;;;;;5011517;28;20052;-71
2022/12/17 22:17:16;;;;;;;121.55;20.15;;;;;;;;;;4997797;28;20073;-69
2022/12/17 22:19:41;;;;;;;75.20;19.80;;;;;;;;;;4998193;28;20045;-68
2022/12/17 22:22:07;;;;;;;107.22;24.80;;;;;;;;;;4999757;28;20057;-70
2022/12/17 22:24:32;;;;;;;94.05;23.83;;;;;;;;;;4996411;28;20054;-68
2022/12/17 22:26:59;;;;;;;80.78;22.02;;;;;;;;;;4995016;28;20056;-67
2022/12/17 22:34:57;;;;;;;54.38;18.90;;;;;;;;;;4997617;28;20041;-67
2022/12/17 22:37:22;;;;;;;61.70;18.77;;;;;;;;;;5012506;28;20057;-68
2022/12/17 22:39:48;;;;;;;60.50;18.17;;;;;;;;;;4999544;28;20057;-67
2022/12/17 22:44:57;;;;;;;60.20;17.95;;;;;;;;;;4999070;28;20069;-66
2022/12/17 22:47:22;;;;;;;61.15;21.90;;;;;;;;;;5013693;28;20566;-67
2022/12/17 22:49:48;;;;;;;84.20;20.63;;;;;;;;;;4997709;28;20638;-68
2022/12/17 22:52:13;;;;;;;53.38;19.77;;;;;;;;;;5000026;28;20046;-69
2022/12/17 22:54:39;;;;;;;73.13;21.08;;;;;;;;;;5000364;28;20053;-67
2022/12/17 22:57:04;;;;;;;85.57;20.60;;;;;;;;;;5016409;28;20050;-69
2022/12/17 22:59:30;;;;;;;66.75;19.52;;;;;;;;;;4999099;28;20443;-69
2022/12/17 23:01:56;;;;;;;110.03;24.20;;;;;;;;;;5000545;28;20046;-67
2022/12/17 23:04:21;;;;;;;69.20;19.30;;;;;;;;;;5000071;28;20041;-68
2022/12/17 23:06:47;;;;;;;61.70;18.63;;;;;;;;;;5001749;28;20065;-67
2022/12/17 23:09:14;;;;;;;66.25;17.73;;;;;;;;;;5001371;28;20560;-68
2022/12/17 23:11:40;;;;;;;77.00;19.35;;;;;;;;;;4998920;28;20041;-68
2022/12/17 23:14:06;;;;;;;78.95;20.33;;;;;;;;;;5000274;28;20049;-69
2022/12/17 23:16:32;;;;;;;76.10;20.38;;;;;;;;;;5001459;28;20510;-67
2022/12/17 23:19:00;;;;;;;67.35;19.10;;;;;;;;;;5000992;28;20050;-68
2022/12/17 23:21:26;;;;;;;82.32;16.85;;;;;;;;;;5000225;28;20058;-69
2022/12/17 23:23:52;;;;;;;57.53;16.58;;;;;;;;;;4999844;28;21173;-68
2022/12/17 23:26:36;;;;;;;31.77;12.15;;;;;;;;;;5001583;28;20042;-69
2022/12/17 23:29:07;;;;;;;45.53;16.30;;;;;;;;;;5001157;28;20041;-69
2022/12/17 23:31:36;;;;;;;66.15;21.08;;;;;;;;;;5001558;28;20061;-69
2022/12/17 23:34:03;;;;;;;111.00;24.05;;;;;;;;;;4998273;28;20045;-68
2022/12/17 23:36:28;;;;;;;95.50;20.52;;;;;;;;;;5000845;28;20060;-68
2022/12/17 23:38:55;;;;;;;86.80;25.33;;;;;;;;;;5000333;28;20049;-67
2022/12/17 23:41:23;;;;;;;52.22;15.43;;;;;;;;;;5000781;28;20127;-68
2022/12/17 23:43:49;;;;;;;98.97;23.65;;;;;;;;;;4997610;28;20927;-67
2022/12/17 23:46:15;;;;;;;99.38;20.52;;;;;;;;;;4999952;28;20418;-67
2022/12/17 23:48:42;;;;;;;59.75;18.48;;;;;;;;;;5000794;28;20053;-68
2022/12/17 23:51:09;;;;;;;59.55;20.13;;;;;;;;;;5000323;28;20160;-69
2022/12/17 23:53:36;;;;;;;68.70;22.20;;;;;;;;;;5000212;28;20491;-68
2022/12/17 23:56:08;;;;;;;67.22;22.30;;;;;;;;;;4998389;28;20125;-69
2022/12/17 23:58:36;;;;;;;61.08;18.13;;;;;;;;;;5000542;28;20052;-69
